createdAt,value
2018-01-11T00:02:01.944Z,91.90
2018-01-11T00:04:30.967Z,91.90
2018-01-11T00:06:59.301Z,91.80
2018-01-11T00:09:27.540Z,92.10
2018-01-11T00:11:56.168Z,92.30
2018-01-11T00:14:24.556Z,92.30
2018-01-11T00:16:53.638Z,92.30
2018-01-11T00:19:21.884Z,92.40
2018-01-11T00:21:50.113Z,92.40
2018-01-11T00:24:18.376Z,92.80
2018-01-11T00:26:46.638Z,93.10
2018-01-11T00:29:14.932Z,93.00
2018-01-11T00:31:43.161Z,93.00
2018-01-11T00:34:11.746Z,93.00
2018-01-11T00:36:40.372Z,92.80
2018-01-11T00:39:08.703Z,93.70
2018-01-11T00:41:36.960Z,92.70
2018-01-11T00:44:05.208Z,93.10
2018-01-11T00:46:34.044Z,93.30
2018-01-11T00:49:02.564Z,93.30
2018-01-11T00:51:30.809Z,93.50
2018-01-11T00:53:59.437Z,93.80
2018-01-11T00:56:27.680Z,94.10
2018-01-11T00:58:56.264Z,94.10
2018-01-11T01:01:24.588Z,93.80
2018-01-11T01:03:54.904Z,94.40
2018-01-11T01:06:23.919Z,94.80
2018-01-11T01:08:52.288Z,94.70
2018-01-11T01:11:20.825Z,94.70
2018-01-11T01:13:49.324Z,94.80
2018-01-11T01:16:17.639Z,94.80
2018-01-11T01:18:46.361Z,94.70
2018-01-11T01:21:15.480Z,94.60
2018-01-11T01:23:43.744Z,94.50
2018-01-11T01:26:12.112Z,94.70
2018-01-11T01:28:40.364Z,94.80
2018-01-11T01:31:08.656Z,94.80
2018-01-11T01:33:36.943Z,95.00
2018-01-11T01:36:05.251Z,95.00
2018-01-11T01:38:33.531Z,95.10
2018-01-11T01:41:01.812Z,95.20
2018-01-11T01:43:30.102Z,95.40
2018-01-11T01:45:58.680Z,95.40
2018-01-11T01:48:41.328Z,95.10
2018-01-11T01:51:09.603Z,95.00
2018-01-11T01:53:37.879Z,94.80
2018-01-11T01:56:06.180Z,94.80
2018-01-11T01:58:35.248Z,94.70
2018-01-11T02:01:03.533Z,94.50
2018-01-11T02:03:31.804Z,94.60
2018-01-11T02:06:00.057Z,94.40
2018-01-11T02:08:29.053Z,94.30
2018-01-11T02:10:57.316Z,94.20
2018-01-11T02:13:26.643Z,95.10
2018-01-11T02:15:54.884Z,94.40
2018-01-11T02:18:23.916Z,95.50
2018-01-11T02:20:52.156Z,94.80
2018-01-11T02:23:20.416Z,94.90
2018-01-11T02:25:48.708Z,95.60
2018-01-11T02:28:16.959Z,94.80
2018-01-11T02:30:45.278Z,95.30
2018-01-11T02:33:14.333Z,94.50
2018-01-11T02:35:42.706Z,94.50
2018-01-11T02:38:11.352Z,94.50
2018-01-11T02:40:39.588Z,94.40
2018-01-11T02:43:07.867Z,94.30
2018-01-11T02:45:36.164Z,94.30
2018-01-11T02:48:05.211Z,94.30
2018-01-11T02:50:33.510Z,94.30
2018-01-11T02:53:01.785Z,94.30
2018-01-11T02:55:30.044Z,94.30
2018-01-11T02:57:58.420Z,94.40
2018-01-11T03:00:28.336Z,94.40
2018-01-11T03:02:56.609Z,94.60
2018-01-11T03:05:24.865Z,94.50
2018-01-11T03:07:53.140Z,94.70
2018-01-11T03:10:22.176Z,94.90
2018-01-11T03:12:52.376Z,95.20
2018-01-11T03:15:21.380Z,95.60
2018-01-11T03:17:49.683Z,95.50
2018-01-11T03:20:18.722Z,96.00
2018-01-11T03:22:46.988Z,96.00
2018-01-11T03:25:15.879Z,96.30
2018-01-11T03:27:44.264Z,96.50
2018-01-11T03:30:12.544Z,96.60
2018-01-11T03:32:40.800Z,96.70
2018-01-11T03:35:09.802Z,96.70
2018-01-11T03:37:38.116Z,96.70
2018-01-11T03:40:06.412Z,97.00
2018-01-11T03:42:34.655Z,97.30
2018-01-11T03:45:02.913Z,97.50
2018-01-11T03:47:31.185Z,97.70
2018-01-11T03:49:59.896Z,97.70
2018-01-11T03:52:28.188Z,97.80
2018-01-11T03:54:56.819Z,97.80
2018-01-11T03:57:25.080Z,97.90
2018-01-11T03:59:54.883Z,98.10
2018-01-11T04:02:23.156Z,98.10
2018-01-11T04:04:51.412Z,98.10
2018-01-11T04:07:19.673Z,98.30
2018-01-11T04:09:47.944Z,98.10
2018-01-11T04:12:16.200Z,98.20
2018-01-11T04:14:44.911Z,98.40
2018-01-11T04:17:13.184Z,98.50
2018-01-11T04:19:41.688Z,98.50
2018-01-11T04:22:09.944Z,98.40
2018-01-11T04:24:38.217Z,98.50
2018-01-11T04:27:06.492Z,98.60
2018-01-11T04:29:34.743Z,98.60
2018-01-11T04:32:03.288Z,98.70
2018-01-11T04:34:31.531Z,98.60
2018-01-11T04:36:59.801Z,98.60
2018-01-11T04:39:28.055Z,98.50
2018-01-11T04:41:57.048Z,99.10
2018-01-11T04:44:25.291Z,99.00
2018-01-11T04:46:53.551Z,99.50
2018-01-11T04:49:22.074Z,99.50
2018-01-11T04:51:50.380Z,99.20
2018-01-11T04:54:18.672Z,99.30
2018-01-11T04:56:47.545Z,99.30
2018-01-11T04:59:16.339Z,99.20
2018-01-11T05:01:44.812Z,99.70
2018-01-11T05:04:13.241Z,99.90
2018-01-11T05:06:42.130Z,99.90
2018-01-11T05:09:10.600Z,99.90
2018-01-11T05:11:38.968Z,99.90
2018-01-11T05:14:07.261Z,99.90
2018-01-11T05:16:35.532Z,99.80
2018-01-11T05:19:04.478Z,99.70
2018-01-11T05:21:33.488Z,99.90
2018-01-11T05:24:01.780Z,99.90
2018-01-11T05:26:30.031Z,99.80
2018-01-11T05:28:58.324Z,99.90
2018-01-11T05:31:26.599Z,99.80
2018-01-11T05:33:54.856Z,99.60
2018-01-11T05:36:23.908Z,99.80
2018-01-11T05:38:52.165Z,99.60
2018-01-11T05:41:20.436Z,99.70
2018-01-11T05:43:48.985Z,99.70
2018-01-11T05:46:17.984Z,99.50
2018-01-11T05:48:46.259Z,99.40
2018-01-11T05:51:14.548Z,99.60
2018-01-11T05:53:42.823Z,99.70
2018-01-11T05:56:11.140Z,99.70
2018-01-11T05:58:39.468Z,99.70
2018-01-11T06:01:08.484Z,99.30
2018-01-11T06:03:37.176Z,99.30
2018-01-11T06:06:05.471Z,99.10
2018-01-11T06:08:33.765Z,99.80
2018-01-11T06:11:02.041Z,99.90
2018-01-11T06:13:30.292Z,99.90
2018-01-11T06:15:58.555Z,99.90
2018-01-11T06:18:26.832Z,99.90
2018-01-11T06:20:55.840Z,99.90
2018-01-11T06:23:24.108Z,99.90
2018-01-11T06:25:52.692Z,99.90
2018-01-11T06:28:20.992Z,99.90
2018-01-11T06:30:49.288Z,99.90
2018-01-11T06:33:17.552Z,99.90
2018-01-11T06:35:45.804Z,99.90
2018-01-11T06:38:14.104Z,99.70
2018-01-11T06:40:42.380Z,99.70
2018-01-11T06:43:11.444Z,99.70
2018-01-11T06:45:39.720Z,99.90
2018-01-11T06:48:07.980Z,99.90
2018-01-11T06:50:36.268Z,99.90
2018-01-11T06:53:04.553Z,99.90
2018-01-11T06:55:32.836Z,99.90
2018-01-11T06:58:01.112Z,99.90
2018-01-11T07:00:30.120Z,99.90
2018-01-11T07:02:58.372Z,99.90
2018-01-11T07:05:28.075Z,99.90
2018-01-11T07:07:57.260Z,99.90
2018-01-11T07:10:25.565Z,99.90
2018-01-11T07:12:53.964Z,99.90
2018-01-11T07:15:22.256Z,99.90
2018-01-11T07:17:50.532Z,99.90
2018-01-11T07:20:19.332Z,99.90
2018-01-11T07:22:48.492Z,99.90
2018-01-11T07:25:18.099Z,99.90
2018-01-11T07:27:47.416Z,99.90
2018-01-11T07:30:15.690Z,99.90
2018-01-11T07:32:44.120Z,99.90
2018-01-11T07:35:13.133Z,99.80
2018-01-11T07:37:41.424Z,99.80
2018-01-11T07:40:09.724Z,99.90
2018-01-11T07:42:38.024Z,99.70
2018-01-11T07:45:06.416Z,99.70
2018-01-11T07:47:34.808Z,99.90
2018-01-11T07:50:03.625Z,99.90
2018-01-11T07:52:32.347Z,99.90
2018-01-11T07:55:00.630Z,99.90
2018-01-11T07:57:29.047Z,99.90
2018-01-11T07:59:57.328Z,99.90
2018-01-11T08:02:25.612Z,99.90
2018-01-11T08:04:53.912Z,99.90
2018-01-11T08:07:22.192Z,99.90
2018-01-11T08:09:50.669Z,99.90
2018-01-11T08:12:19.357Z,99.90
2018-01-11T08:14:47.658Z,99.90
2018-01-11T08:17:15.919Z,99.90
2018-01-11T08:19:44.556Z,99.90
2018-01-11T08:22:12.812Z,99.90
2018-01-11T08:24:41.098Z,99.90
2018-01-11T08:27:09.341Z,99.90
2018-01-11T08:29:38.336Z,99.50
2018-01-11T08:32:06.583Z,99.50
2018-01-11T08:34:35.042Z,99.00
2018-01-11T08:37:03.309Z,98.90
2018-01-11T08:39:31.906Z,98.80
2018-01-11T08:42:01.016Z,98.60
2018-01-11T08:44:29.343Z,98.30
2018-01-11T08:46:57.614Z,98.10
2018-01-11T08:49:26.160Z,98.10
2018-01-11T08:51:54.767Z,97.90
2018-01-11T08:54:23.020Z,97.80
2018-01-11T08:56:51.548Z,97.90
2018-01-11T08:59:19.772Z,97.80
2018-01-11T09:01:48.478Z,98.10
2018-01-11T09:04:16.728Z,98.10
2018-01-11T09:06:45.016Z,98.00
2018-01-11T09:09:13.300Z,97.90
2018-01-11T09:11:41.728Z,97.80
2018-01-11T09:14:10.060Z,97.50
2018-01-11T09:16:38.315Z,97.50
2018-01-11T09:19:07.728Z,97.30
2018-01-11T09:21:36.711Z,97.00
2018-01-11T09:24:05.013Z,97.00
2018-01-11T09:26:33.260Z,97.50
2018-01-11T09:29:01.552Z,97.60
2018-01-11T09:31:29.912Z,97.50
2018-01-11T09:33:58.360Z,97.20
2018-01-11T09:36:26.650Z,96.80
2018-01-11T09:38:55.672Z,97.00
2018-01-11T09:41:24.292Z,96.80
2018-01-11T09:43:52.932Z,96.70
2018-01-11T09:46:22.104Z,96.20
2018-01-11T09:48:50.780Z,96.20
2018-01-11T09:51:19.080Z,96.40
2018-01-11T09:53:48.115Z,96.60
2018-01-11T09:56:16.611Z,96.60
2018-01-11T09:58:45.056Z,96.40
2018-01-11T10:01:13.321Z,96.10
2018-01-11T10:03:41.596Z,96.30
2018-01-11T10:06:10.744Z,96.80
2018-01-11T10:08:39.016Z,96.70
2018-01-11T10:11:07.932Z,96.90
2018-01-11T10:13:37.844Z,97.10
2018-01-11T10:16:06.312Z,97.10
2018-01-11T10:18:34.856Z,97.00
2018-01-11T10:21:03.266Z,96.70
2018-01-11T10:23:31.520Z,96.90
2018-01-11T10:26:00.024Z,97.10
2018-01-11T10:28:29.125Z,97.00
2018-01-11T10:30:57.496Z,97.10
2018-01-11T10:33:26.168Z,97.10
2018-01-11T10:35:54.542Z,96.80
2018-01-11T10:38:22.792Z,96.90
2018-01-11T10:40:51.970Z,96.60
2018-01-11T10:43:20.387Z,96.60
2018-01-11T10:45:48.673Z,96.10
2018-01-11T10:48:17.203Z,96.70
2018-01-11T10:50:45.452Z,96.90
2018-01-11T10:53:14.170Z,96.70
2018-01-11T10:55:42.463Z,96.60
2018-01-11T10:58:11.510Z,96.20
2018-01-11T11:00:44.940Z,96.10
2018-01-11T11:03:14.140Z,96.00
2018-01-11T11:05:43.733Z,96.00
2018-01-11T11:08:12.012Z,96.00
2018-01-11T11:10:40.336Z,95.60
2018-01-11T11:13:08.618Z,95.50
2018-01-11T11:15:36.879Z,95.60
2018-01-11T11:18:05.182Z,95.40
2018-01-11T11:20:33.493Z,95.10
2018-01-11T11:23:01.971Z,94.40
2018-01-11T11:25:30.296Z,94.30
2018-01-11T11:27:59.012Z,94.00
2018-01-11T11:30:27.336Z,95.10
2018-01-11T11:32:55.650Z,95.30
2018-01-11T11:35:24.220Z,94.60
2018-01-11T11:37:53.392Z,94.10
2018-01-11T11:40:21.672Z,94.00
2018-01-11T11:42:50.296Z,94.10
2018-01-11T11:45:18.532Z,93.80
2018-01-11T11:47:47.328Z,93.50
2018-01-11T11:50:15.675Z,93.90
2018-01-11T11:52:44.559Z,94.60
2018-01-11T11:55:13.084Z,94.80
2018-01-11T11:57:42.428Z,94.70
2018-01-11T12:00:10.810Z,94.50
2018-01-11T12:02:39.162Z,94.50
2018-01-11T12:05:07.894Z,94.60
2018-01-11T12:07:36.262Z,94.90
2018-01-11T12:10:04.385Z,94.60
2018-01-11T12:12:33.839Z,95.80
2018-01-11T12:15:02.172Z,95.80
2018-01-11T12:17:30.461Z,96.10
2018-01-11T12:19:59.587Z,96.20
2018-01-11T12:22:27.865Z,96.20
2018-01-11T12:24:56.395Z,96.30
2018-01-11T12:27:24.677Z,95.90
2018-01-11T12:29:52.948Z,95.80
2018-01-11T12:32:21.488Z,95.40
2018-01-11T12:34:50.024Z,95.80
2018-01-11T12:37:18.718Z,95.50
2018-01-11T12:39:47.809Z,95.10
2018-01-11T12:42:16.104Z,95.00
2018-01-11T12:44:44.428Z,94.30
2018-01-11T12:47:13.422Z,95.00
2018-01-11T12:49:41.856Z,95.00
2018-01-11T12:52:10.285Z,95.30
2018-01-11T12:54:40.083Z,95.40
2018-01-11T12:57:08.907Z,95.30
2018-01-11T12:59:38.809Z,95.50
2018-01-11T13:02:07.140Z,95.50
2018-01-11T13:04:36.029Z,95.90
2018-01-11T13:07:04.446Z,96.30
2018-01-11T13:09:32.712Z,95.30
2018-01-11T13:12:00.989Z,95.30
2018-01-11T13:14:29.251Z,95.20
2018-01-11T13:16:58.008Z,95.40
2018-01-11T13:19:27.989Z,96.40
2018-01-11T13:21:56.318Z,96.30
2018-01-11T13:24:25.032Z,96.60
2018-01-11T13:26:53.285Z,96.40
2018-01-11T13:29:23.471Z,97.00
2018-01-11T13:31:54.656Z,96.90
2018-01-11T13:34:23.176Z,96.70
2018-01-11T13:36:51.505Z,97.20
2018-01-11T13:39:20.600Z,97.30
2018-01-11T13:41:50.064Z,97.30
2018-01-11T13:44:19.344Z,97.60
2018-01-11T13:46:47.665Z,97.80
2018-01-11T13:49:16.689Z,98.10
2018-01-11T13:51:44.920Z,98.30
2018-01-11T13:54:13.260Z,98.80
2018-01-11T13:56:41.859Z,98.90
2018-01-11T13:59:10.192Z,99.00
2018-01-11T14:01:38.736Z,99.00
2018-01-11T14:04:07.853Z,98.90
2018-01-11T14:06:36.124Z,99.00
2018-01-11T14:09:06.016Z,99.30
2018-01-11T14:11:34.361Z,99.10
2018-01-11T14:14:02.716Z,99.60
2018-01-11T14:16:31.728Z,99.90
2018-01-11T14:19:00.011Z,99.90
2018-01-11T14:21:28.611Z,99.90
2018-01-11T14:23:57.232Z,99.90
2018-01-11T14:26:26.980Z,99.80
2018-01-11T14:28:55.249Z,99.80
2018-01-11T14:31:23.645Z,99.90
2018-01-11T14:33:51.985Z,99.90
2018-01-11T14:36:20.560Z,99.90
2018-01-11T14:38:50.296Z,99.90
2018-01-11T14:41:19.116Z,99.90
2018-01-11T14:43:47.396Z,99.90
2018-01-11T14:46:15.676Z,99.90
2018-01-11T14:48:44.076Z,99.90
2018-01-11T14:51:12.352Z,99.90
2018-01-11T14:53:40.645Z,99.90
2018-01-11T14:56:10.412Z,99.90
2018-01-11T14:58:38.724Z,99.90
2018-01-11T15:01:07.222Z,99.90
2018-01-11T15:03:35.732Z,99.90
2018-01-11T15:06:06.482Z,99.90
2018-01-11T15:08:35.660Z,99.90
2018-01-11T15:11:04.692Z,99.90
2018-01-11T15:13:33.021Z,99.90
2018-01-11T15:16:01.365Z,99.90
2018-01-11T15:18:29.635Z,99.90
2018-01-11T15:20:58.342Z,99.90
2018-01-11T15:23:26.676Z,99.80
2018-01-11T15:25:54.986Z,99.90
2018-01-11T15:28:23.476Z,99.90
2018-01-11T15:30:51.736Z,99.90
2018-01-11T15:33:20.008Z,99.90
2018-01-11T15:35:48.471Z,99.90
2018-01-11T15:38:16.752Z,99.90
2018-01-11T15:40:47.436Z,99.90
2018-01-11T15:43:15.761Z,99.90
2018-01-11T15:45:44.163Z,99.90
2018-01-11T15:48:12.725Z,99.90
2018-01-11T15:50:41.093Z,99.90
2018-01-11T15:53:09.352Z,99.90
2018-01-11T15:55:38.229Z,99.90
2018-01-11T15:58:06.684Z,99.90
2018-01-11T16:00:35.088Z,99.90
2018-01-11T16:03:03.692Z,99.90
2018-01-11T16:05:32.721Z,99.90
2018-01-11T16:08:01.048Z,99.90
2018-01-11T16:10:29.368Z,99.90
2018-01-11T16:12:57.648Z,99.90
2018-01-11T16:15:26.053Z,99.90
2018-01-11T16:17:54.621Z,99.90
2018-01-11T16:20:23.935Z,99.90
2018-01-11T16:22:52.624Z,99.90
2018-01-11T16:25:20.992Z,99.90
2018-01-11T16:27:49.277Z,99.90
2018-01-11T16:30:17.605Z,99.90
2018-01-11T16:32:45.888Z,99.90
2018-01-11T16:35:14.188Z,99.90
2018-01-11T16:37:42.844Z,99.90
2018-01-11T16:40:11.885Z,99.90
2018-01-11T16:42:40.568Z,99.90
2018-01-11T16:45:09.029Z,99.90
2018-01-11T16:47:37.400Z,99.90
2018-01-11T16:50:05.724Z,99.90
2018-01-11T16:52:34.188Z,99.90
2018-01-11T16:55:02.566Z,99.90
2018-01-11T16:57:31.408Z,99.90
2018-01-11T17:00:00.508Z,99.90
2018-01-11T17:02:29.579Z,99.90
2018-01-11T17:04:57.840Z,99.90
2018-01-11T17:07:26.117Z,99.90
2018-01-11T17:09:54.946Z,99.90
2018-01-11T17:12:24.049Z,99.90
2018-01-11T17:14:53.050Z,99.90
2018-01-11T17:17:21.888Z,99.90
2018-01-11T17:19:50.494Z,99.90
2018-01-11T17:22:19.536Z,99.90
2018-01-11T17:24:47.843Z,99.90
2018-01-11T17:27:16.212Z,99.90
2018-01-11T17:29:44.480Z,99.90
2018-01-11T17:32:12.879Z,99.90
2018-01-11T17:34:41.202Z,99.90
2018-01-11T17:37:10.246Z,99.90
2018-01-11T17:39:39.005Z,99.90
2018-01-11T17:42:07.564Z,99.90
2018-01-11T17:44:36.580Z,99.90
2018-01-11T17:47:04.880Z,99.90
2018-01-11T17:49:33.205Z,99.90
2018-01-11T17:52:02.273Z,99.90
2018-01-11T17:54:32.226Z,99.90
2018-01-11T17:57:00.513Z,99.90
2018-01-11T17:59:28.808Z,99.90
2018-01-11T18:01:57.102Z,99.90
2018-01-11T18:04:25.728Z,99.90
2018-01-11T18:06:54.761Z,99.90
2018-01-11T18:09:23.888Z,99.90
2018-01-11T18:11:52.180Z,99.90
2018-01-11T18:14:21.916Z,99.90
2018-01-11T18:16:50.928Z,99.90
2018-01-11T18:19:19.386Z,99.90
2018-01-11T18:21:48.412Z,99.90
2018-01-11T18:24:16.735Z,99.90
2018-01-11T18:26:45.256Z,99.90
2018-01-11T18:29:13.914Z,99.90
2018-01-11T18:31:42.275Z,99.90
2018-01-11T18:34:10.569Z,99.90
2018-01-11T18:36:39.326Z,99.90
2018-01-11T18:39:07.624Z,99.90
2018-01-11T18:41:36.912Z,99.90
2018-01-11T18:44:05.238Z,99.90
2018-01-11T18:46:34.236Z,99.90
2018-01-11T18:49:03.304Z,99.90
2018-01-11T18:51:31.585Z,99.90
2018-01-11T18:54:00.337Z,99.90
2018-01-11T18:56:28.683Z,99.90
2018-01-11T18:58:57.061Z,99.90
2018-01-11T19:01:25.348Z,99.90
2018-01-11T19:03:53.676Z,99.90
2018-01-11T19:06:22.035Z,99.90
2018-01-11T19:08:50.336Z,99.90
2018-01-11T19:11:18.595Z,99.90
2018-01-11T19:13:47.000Z,99.90
2018-01-11T19:16:16.920Z,99.90
2018-01-11T19:18:46.284Z,99.90
2018-01-11T19:21:14.570Z,99.90
2018-01-11T19:23:43.545Z,99.90
2018-01-11T19:26:12.205Z,99.90
2018-01-11T19:28:40.522Z,99.90
2018-01-11T19:31:08.880Z,99.90
2018-01-11T19:33:37.148Z,99.90
2018-01-11T19:36:05.610Z,99.90
2018-01-11T19:38:34.699Z,99.90
2018-01-11T19:41:03.812Z,99.90
2018-01-11T19:43:32.492Z,99.90
2018-01-11T19:46:00.792Z,99.90
2018-01-11T19:48:29.180Z,99.90
2018-01-11T19:50:57.472Z,99.90
2018-01-11T19:53:26.028Z,99.90
2018-01-11T19:55:54.516Z,99.90
2018-01-11T19:58:22.969Z,99.90
2018-01-11T20:00:51.236Z,99.90
2018-01-11T20:03:20.831Z,99.90
2018-01-11T20:05:49.191Z,99.90
2018-01-11T20:08:17.512Z,99.90
2018-01-11T20:10:46.965Z,99.90
2018-01-11T20:13:16.069Z,99.90
2018-01-11T20:15:44.497Z,99.90
2018-01-11T20:18:12.843Z,99.90
2018-01-11T20:20:42.593Z,99.90
2018-01-11T20:23:11.103Z,99.90
2018-01-11T20:25:40.177Z,99.90
2018-01-11T20:28:08.560Z,99.90
2018-01-11T20:30:36.957Z,99.80
2018-01-11T20:33:05.234Z,99.60
2018-01-11T20:35:33.841Z,99.60
2018-01-11T20:38:03.994Z,99.90
2018-01-11T20:40:32.428Z,99.90
2018-01-11T20:43:00.704Z,99.80
2018-01-11T20:45:29.275Z,99.90
2018-01-11T20:47:57.820Z,99.90
2018-01-11T20:50:26.376Z,99.90
2018-01-11T20:52:56.308Z,99.90
2018-01-11T20:55:25.345Z,99.90
2018-01-11T20:57:53.792Z,99.70
2018-01-11T21:00:23.661Z,99.40
2018-01-11T21:02:51.997Z,99.30
2018-01-11T21:05:20.328Z,99.50
2018-01-11T21:07:48.757Z,99.50
2018-01-11T21:10:17.096Z,99.20
2018-01-11T21:12:46.844Z,98.80
2018-01-11T21:15:15.888Z,99.40
2018-01-11T21:17:44.176Z,99.40
2018-01-11T21:20:12.730Z,99.80
2018-01-11T21:22:40.989Z,99.90
2018-01-11T21:25:09.324Z,99.90
2018-01-11T21:27:40.159Z,99.90
2018-01-11T21:30:08.602Z,99.90
2018-01-11T21:32:37.083Z,99.90
2018-01-11T21:35:05.155Z,99.90
2018-01-11T21:37:34.460Z,99.90
2018-01-11T21:40:02.839Z,99.90
2018-01-11T21:42:31.435Z,99.90
2018-01-11T21:45:00.304Z,99.90
2018-01-11T21:47:28.576Z,99.90
2018-01-11T21:49:56.872Z,99.90
2018-01-11T21:52:25.133Z,99.90
2018-01-11T21:54:53.596Z,99.90
2018-01-11T21:57:22.680Z,99.90
2018-01-11T21:59:51.168Z,99.90
2018-01-11T22:02:19.451Z,99.90
2018-01-11T22:04:47.742Z,99.90
2018-01-11T22:07:16.032Z,99.90
2018-01-11T22:09:44.294Z,99.90
2018-01-11T22:12:12.570Z,99.90
2018-01-11T22:14:40.966Z,99.90
2018-01-11T22:17:09.308Z,99.90
2018-01-11T22:19:37.794Z,99.90
2018-01-11T22:22:06.376Z,99.90
2018-01-11T22:24:34.857Z,99.90
2018-01-11T22:27:03.542Z,99.90
2018-01-11T22:29:32.378Z,99.90
2018-01-11T22:32:00.875Z,99.90
2018-01-11T22:34:30.841Z,99.90
2018-01-11T22:36:59.148Z,99.90
2018-01-11T22:39:27.699Z,99.90
2018-01-11T22:41:55.980Z,99.90
2018-01-11T22:44:24.485Z,99.90
2018-01-11T22:46:52.864Z,99.60
2018-01-11T22:49:21.259Z,99.60
2018-01-11T22:51:49.517Z,99.80
2018-01-11T22:54:18.175Z,99.90
2018-01-11T22:56:46.650Z,99.90
2018-01-11T22:59:14.995Z,99.90
2018-01-11T23:01:43.310Z,99.90
2018-01-11T23:04:11.980Z,99.90
2018-01-11T23:06:41.110Z,99.90
2018-01-11T23:09:09.566Z,99.90
2018-01-11T23:11:42.539Z,99.90
2018-01-11T23:14:11.307Z,99.90
2018-01-11T23:16:40.345Z,99.90
2018-01-11T23:19:09.003Z,99.90
2018-01-11T23:21:37.538Z,99.90
2018-01-11T23:24:06.050Z,99.90
2018-01-11T23:26:34.360Z,99.90
2018-01-11T23:29:03.584Z,99.90
2018-01-11T23:31:31.876Z,99.90
2018-01-11T23:34:00.858Z,99.90
2018-01-11T23:36:29.562Z,99.90
2018-01-11T23:38:58.930Z,99.90
2018-01-11T23:41:27.684Z,99.90
2018-01-11T23:43:56.200Z,99.90
2018-01-11T23:46:24.483Z,99.90
2018-01-11T23:48:52.816Z,99.90
2018-01-11T23:51:21.203Z,99.90
2018-01-11T23:53:49.602Z,99.90
2018-01-11T23:56:18.420Z,99.90
2018-01-11T23:58:47.337Z,99.90
